Create Tblcommutelog Verified Points Advance Search
| # | Trip ID | Id Commuter | Trip Date | Trip Num | Current Lat | Current Lng | Delta Distance | Current Time | Activity | Activity Confidence | Current Speed | |
|---|---|---|---|---|---|---|---|---|---|---|---|---|
| 72001 | 250917_769092_16489920_0633 | 769092 | (not set) | (not set) | 38.801143071026 | -77.523520998881 | 3.2976 | 2025-09-17 06:36:07 | in_vehicle | 100 | 14.175614902501 | |
| 72002 | 250917_784692_16513841_0631 | 784692 | (not set) | (not set) | 38.885728286689 | -77.220869776633 | 5.7011 | 2025-09-17 06:36:05 | in_vehicle | 100 | 8.6099761281036 | |
| 72003 | 250917_788475_16428771_0605 | 788475 | (not set) | (not set) | 38.821145881197 | -76.920687253542 | 15.2173 | 2025-09-17 06:36:07 | in_vehicle | 100 | 9.1687752018382 | |
| 72004 | 250917_788084_16449863_0630 | 788084 | (not set) | (not set) | 39.434531592233 | -76.379783462339 | 4.6123 | 2025-09-17 06:36:08 | in_vehicle | 100 | 13.138483821649 | |
| 72005 | 250917_788084_16449863_0630 | 788084 | (not set) | (not set) | 39.434531592233 | -76.379783462339 | 4.6123 | 2025-09-17 06:36:08 | in_vehicle | 100 | 13.138483821649 | |
| 72006 | 250917_788220_16489920_0628 | 788220 | (not set) | (not set) | 38.801238735425 | -77.522438103112 | 3.862 | 2025-09-17 06:36:10 | in_vehicle | 100 | 13.706223680564 | |
| 72007 | 250917_788220_16489920_0628 | 788220 | (not set) | (not set) | 38.801238735425 | -77.522438103112 | 3.862 | 2025-09-17 06:36:10 | in_vehicle | 100 | 13.706223680564 | |
| 72008 | 250917_787968_16505268_0621 | 787968 | (not set) | (not set) | 38.886629200864 | -77.220090512531 | 12.9084 | 2025-09-17 06:36:12 | in_vehicle | 100 | 7.6309601509205 | |
| 72009 | 250917_788423_16505268_0622 | 788423 | (not set) | (not set) | 38.88664734124 | -77.220100835931 | 12.9391 | 2025-09-17 06:36:12 | unknown | 100 | 7.5951970102014 | |
| 72010 | 250917_113832_16457490_0628 | 113832 | (not set) | (not set) | 39.12837908781 | -77.193601007817 | 0.4857 | 2025-09-17 06:36:13 | in_vehicle | 100 | 6.8173486995628 | |
| 72011 | 250917_113832_16457490_0628 | 113832 | (not set) | (not set) | 39.12837908781 | -77.193601007817 | 0.4857 | 2025-09-17 06:36:13 | in_vehicle | 100 | 6.8173486995628 | |
| 72012 | 250917_788077_16505268_0631 | 788077 | (not set) | (not set) | 38.886784131377 | -77.22002181734 | 5.8983 | 2025-09-17 06:36:13 | unknown | 100 | 7.64884172128 | |
| 72013 | 250917_760357_16478572_0627 | 760357 | (not set) | (not set) | 39.028398943729 | -76.756250056513 | 6.1233 | 2025-09-17 06:36:13 | in_vehicle | 100 | 12.633329458993 | |
| 72014 | 250917_781963_16497804_0632 | 781963 | (not set) | (not set) | 38.9558155 | -76.6970575 | 3.0062 | 2025-09-17 06:36:16 | in_vehicle | 100 | 13.402236984452 | |
| 72015 | 250917_781350_16450333_0631 | 781350 | (not set) | (not set) | 38.922001000769 | -76.904856078605 | 2.6959 | 2025-09-17 06:36:16 | in_vehicle | 100 | 17.658050730015 | |
| 72016 | 250917_788222_16468806_0628 | 788222 | (not set) | (not set) | 38.801380362758 | -77.51985733482 | 4.0023 | 2025-09-17 06:36:17 | unknown | 100 | 14.524305524511 | |
| 72017 | 250917_787298_16657128_0615 | 787298 | (not set) | (not set) | 39.097269439755 | -76.694739034738 | 14.4283 | 2025-09-17 06:36:18 | in_vehicle | 100 | 8.2523447209134 | |
| 72018 | 250917_769092_16489920_0633 | 769092 | (not set) | (not set) | 38.801447649242 | -77.519132174865 | 3.5355 | 2025-09-17 06:36:19 | in_vehicle | 100 | 14.573479843 | |
| 72019 | 250917_788475_16428771_0605 | 788475 | (not set) | (not set) | 38.823129047013 | -76.922089259289 | 15.3736 | 2025-09-17 06:36:19 | in_vehicle | 100 | 9.3788836535625 | |
| 72020 | 250917_788220_16489920_0628 | 788220 | (not set) | (not set) | 38.801511971024 | -77.518372028228 | 4.0823 | 2025-09-17 06:36:21 | in_vehicle | 100 | 14.636065339258 |